createdAt,value
2019-04-22T00:01:21.565Z,8.93
2019-04-22T00:03:53.284Z,14.05
2019-04-22T00:06:39.285Z,8.58
2019-04-22T00:09:15.965Z,9.80
2019-04-22T00:11:36.780Z,8.38
2019-04-22T00:14:00.722Z,7.60
2019-04-22T00:16:43.244Z,7.17
2019-04-22T00:19:17.618Z,8.93
2019-04-22T00:21:32.301Z,7.95
2019-04-22T00:23:59.869Z,9.93
2019-04-22T00:26:32.540Z,10.40
2019-04-22T00:28:59.314Z,7.67
2019-04-22T00:31:21.003Z,8.43
2019-04-22T00:33:51.764Z,8.55
2019-04-22T00:36:23.666Z,9.28
2019-04-22T00:38:52.286Z,9.30
2019-04-22T00:41:25.430Z,7.20
2019-04-22T00:43:48.063Z,16.27
2019-04-22T00:46:20.583Z,9.48
2019-04-22T00:48:42.648Z,8.55
2019-04-22T00:51:16.862Z,11.68
2019-04-22T00:53:40.102Z,12.00
2019-04-22T00:58:36.499Z,9.05
2019-04-22T01:01:09.066Z,7.85
2019-04-22T01:03:37.264Z,7.28
2019-04-22T01:06:06.179Z,9.70
2019-04-22T01:08:30.251Z,7.28
2019-04-22T01:11:06.228Z,7.75
2019-04-22T01:13:26.186Z,7.67
2019-04-22T01:16:01.493Z,6.15
2019-04-22T01:18:24.515Z,9.70
2019-04-22T01:21:07.250Z,9.05
2019-04-22T01:23:19.169Z,8.75
2019-04-22T01:25:46.337Z,7.97
2019-04-22T01:28:09.480Z,7.58
2019-04-22T01:30:32.446Z,7.97
2019-04-22T01:32:53.902Z,9.58
2019-04-22T01:35:32.278Z,8.80
2019-04-22T01:38:06.510Z,9.85
2019-04-22T01:40:45.412Z,7.53
2019-04-22T01:43:14.757Z,6.55
2019-04-22T01:45:40.097Z,8.00
2019-04-22T01:48:07.461Z,6.65
2019-04-22T01:50:30.663Z,6.22
2019-04-22T01:53:06.397Z,6.75
2019-04-22T01:55:31.103Z,9.35
2019-04-22T01:57:53.618Z,7.40
2019-04-22T02:00:31.200Z,9.03
2019-04-22T02:02:57.514Z,7.90
2019-04-22T02:05:24.442Z,10.82
2019-04-22T02:07:58.408Z,8.73
2019-04-22T02:10:32.014Z,10.60
2019-04-22T02:12:54.316Z,8.80
2019-04-22T02:15:17.140Z,5.53
2019-04-22T02:18:10.668Z,8.43
2019-04-22T02:20:23.327Z,9.73
2019-04-22T02:23:03.555Z,9.10
2019-04-22T02:25:21.853Z,10.53
2019-04-22T02:27:49.848Z,9.85
2019-04-22T02:30:06.151Z,7.37
2019-04-22T02:33:13.414Z,6.03
2019-04-22T02:35:11.096Z,6.70
2019-04-22T02:37:54.845Z,9.20
2019-04-22T02:42:52.266Z,8.93
2019-04-22T02:44:58.408Z,8.05
2019-04-22T02:47:27.702Z,10.68
2019-04-22T02:50:05.178Z,7.67
2019-04-22T02:52:35.427Z,7.10
2019-04-22T02:57:35.198Z,6.83
2019-04-22T03:00:07.020Z,6.08
2019-04-22T03:02:28.711Z,6.90
2019-04-22T03:04:51.274Z,7.92
2019-04-22T03:07:20.761Z,9.13
2019-04-22T03:09:50.738Z,11.00
2019-04-22T03:12:29.194Z,9.13
2019-04-22T03:14:50.034Z,12.93
2019-04-22T03:17:18.017Z,10.08
2019-04-22T03:22:16.951Z,8.73
2019-04-22T03:24:48.795Z,9.30
2019-04-22T03:27:08.226Z,8.00
2019-04-22T03:29:48.566Z,11.00
2019-04-22T03:32:32.169Z,7.75
2019-04-22T03:42:06.395Z,9.40
2019-04-22T03:57:18.344Z,11.43
2019-04-22T04:02:19.275Z,13.45
2019-04-22T04:04:26.072Z,13.08
2019-04-22T04:09:18.464Z,10.40
2019-04-22T04:11:53.824Z,9.60
2019-04-22T04:14:21.144Z,10.68
2019-04-22T04:16:47.728Z,12.18
2019-04-22T04:24:32.941Z,9.05
2019-04-22T04:26:47.830Z,9.00
2019-04-22T04:29:17.149Z,8.35
2019-04-22T04:31:33.798Z,8.48
2019-04-22T04:36:32.386Z,11.50
2019-04-22T04:39:02.192Z,8.90
2019-04-22T04:41:34.285Z,8.48
2019-04-22T04:44:01.949Z,10.18
2019-04-22T04:46:24.879Z,12.58
2019-04-22T04:51:30.566Z,12.50
2019-04-22T04:53:41.793Z,14.43
2019-04-22T04:59:06.046Z,13.25
2019-04-22T05:01:11.032Z,13.10
2019-04-22T05:11:05.847Z,11.25
2019-04-22T05:13:39.480Z,12.75
2019-04-22T05:16:17.668Z,13.10
2019-04-22T05:18:31.228Z,11.00
2019-04-22T05:21:09.675Z,9.80
2019-04-22T05:23:25.560Z,11.00
2019-04-22T05:25:55.131Z,8.60
2019-04-22T05:28:16.504Z,10.00
2019-04-22T05:30:39.306Z,9.53
2019-04-22T05:33:18.708Z,9.68
2019-04-22T05:35:44.379Z,10.13
2019-04-22T05:38:17.483Z,10.30
2019-04-22T05:40:48.459Z,12.53
2019-04-22T05:43:07.792Z,12.75
2019-04-22T05:45:33.991Z,10.38
2019-04-22T05:48:01.239Z,9.45
2019-04-22T05:50:29.397Z,13.90
2019-04-22T05:57:59.727Z,12.30
2019-04-22T06:05:24.694Z,12.25
2019-04-22T06:07:59.458Z,8.08
2019-04-22T06:12:46.134Z,10.15
2019-04-22T06:15:19.498Z,13.78
2019-04-22T06:17:50.176Z,10.00
2019-04-22T06:20:09.035Z,9.60
2019-04-22T06:22:50.374Z,10.68
2019-04-22T06:27:42.900Z,9.93
2019-04-22T06:30:09.684Z,14.95
2019-04-22T06:32:31.385Z,11.22
2019-04-22T06:35:15.350Z,8.70
2019-04-22T06:37:35.047Z,10.40
2019-04-22T06:39:59.387Z,8.55
2019-04-22T06:45:02.278Z,7.90
2019-04-22T06:47:55.993Z,8.70
2019-04-22T06:49:57.021Z,9.20
2019-04-22T06:54:54.251Z,10.98
2019-04-22T06:57:19.228Z,9.28
2019-04-22T06:59:54.872Z,9.33
2019-04-22T07:02:16.467Z,8.98
2019-04-22T07:04:53.819Z,8.90
2019-04-22T07:07:17.097Z,7.87
2019-04-22T07:12:13.087Z,7.75
2019-04-22T07:14:41.767Z,10.60
2019-04-22T07:17:23.159Z,8.00
2019-04-22T07:19:40.909Z,9.07
2019-04-22T07:22:09.594Z,8.73
2019-04-22T07:24:43.819Z,7.40
2019-04-22T07:27:04.639Z,7.33
2019-04-22T07:29:32.575Z,9.53
2019-04-22T07:32:04.721Z,7.50
2019-04-22T07:34:34.585Z,8.00
2019-04-22T07:36:59.038Z,6.20
2019-04-22T07:39:27.401Z,6.27
2019-04-22T07:41:51.537Z,5.50
2019-04-22T07:44:25.850Z,5.07
2019-04-22T07:46:56.550Z,5.13
2019-04-22T07:49:18.283Z,5.57
2019-04-22T07:51:44.185Z,6.03
2019-04-22T07:54:13.317Z,6.10
2019-04-22T07:56:44.087Z,4.93
2019-04-22T07:59:15.622Z,5.37
2019-04-22T08:01:36.640Z,5.30
2019-04-22T08:04:21.264Z,6.73
2019-04-22T08:06:38.708Z,5.33
2019-04-22T08:09:11.493Z,5.10
2019-04-22T08:11:46.305Z,7.97
2019-04-22T08:14:03.567Z,5.90
2019-04-22T08:16:31.129Z,5.47
2019-04-22T08:19:02.991Z,5.00
2019-04-22T08:21:22.198Z,4.57
2019-04-22T08:23:59.884Z,5.40
2019-04-22T08:26:27.535Z,4.27
2019-04-22T08:28:54.768Z,6.07
2019-04-22T08:31:20.522Z,5.73
2019-04-22T08:33:46.554Z,6.07
2019-04-22T08:36:19.802Z,5.13
2019-04-22T08:39:02.504Z,5.20
2019-04-22T08:41:23.572Z,5.50
2019-04-22T08:43:52.345Z,5.80
2019-04-22T08:46:17.371Z,5.47
2019-04-22T08:48:37.065Z,5.03
2019-04-22T08:51:09.028Z,4.20
2019-04-22T08:53:46.167Z,4.97
2019-04-22T08:56:22.022Z,3.80
2019-04-22T08:58:31.537Z,4.30
2019-04-22T09:01:04.679Z,4.80
2019-04-22T09:03:33.225Z,6.13
2019-04-22T09:08:26.722Z,5.10
2019-04-22T09:10:59.900Z,4.60
2019-04-22T09:13:22.201Z,4.60
2019-04-22T09:15:49.224Z,5.00
2019-04-22T09:18:23.229Z,4.60
2019-04-22T09:20:49.003Z,6.43
2019-04-22T09:23:27.100Z,5.23
2019-04-22T09:26:06.669Z,4.20
2019-04-22T09:28:18.232Z,4.57
2019-04-22T09:30:47.072Z,4.77
2019-04-22T09:33:14.179Z,5.63
2019-04-22T09:35:49.812Z,4.60
2019-04-22T09:38:18.879Z,5.83
2019-04-22T09:40:35.161Z,5.10
2019-04-22T09:43:02.536Z,4.73
2019-04-22T09:45:27.457Z,5.83
2019-04-22T09:53:02.017Z,6.23
2019-04-22T09:55:26.158Z,6.83
2019-04-22T09:57:58.834Z,5.77
2019-04-22T10:00:22.381Z,4.70
2019-04-22T10:02:56.214Z,6.47
2019-04-22T10:05:21.115Z,5.53
2019-04-22T10:07:50.548Z,5.60
2019-04-22T10:12:42.639Z,4.63
2019-04-22T10:15:13.677Z,6.20
2019-04-22T10:17:41.784Z,5.43
2019-04-22T10:20:10.517Z,4.90
2019-04-22T10:25:14.548Z,4.37
2019-04-22T10:27:38.340Z,4.73
2019-04-22T10:30:06.069Z,5.90
2019-04-22T10:32:33.885Z,5.00
2019-04-22T10:34:44.045Z,4.37
2019-04-22T10:37:10.998Z,12.50
2019-04-22T10:39:43.217Z,3.90
2019-04-22T10:42:02.628Z,4.40
2019-04-22T10:44:30.908Z,4.33
2019-04-22T10:46:58.100Z,3.60
2019-04-22T10:49:26.443Z,4.90
2019-04-22T10:51:54.849Z,3.50
2019-04-22T10:54:23.260Z,9.50
2019-04-22T10:56:50.822Z,4.67
2019-04-22T10:59:18.649Z,6.60
2019-04-22T11:01:46.524Z,3.80
2019-04-22T11:04:13.356Z,5.00
2019-04-22T11:06:50.340Z,5.10
2019-04-22T11:09:10.431Z,4.00
2019-04-22T11:11:46.598Z,5.57
2019-04-22T11:14:07.075Z,4.03
2019-04-22T11:16:35.140Z,4.17
2019-04-22T11:19:03.478Z,4.43
2019-04-22T11:21:31.632Z,3.73
2019-04-22T11:23:58.731Z,3.43
2019-04-22T11:26:25.915Z,5.40
2019-04-22T11:28:53.944Z,3.80
2019-04-22T11:31:20.868Z,3.83
2019-04-22T11:33:48.386Z,3.50
2019-04-22T11:36:15.821Z,4.80
2019-04-22T11:38:48.545Z,3.60
2019-04-22T11:41:12.543Z,4.20
2019-04-22T11:43:41.038Z,3.13
2019-04-22T11:46:09.240Z,4.90
2019-04-22T11:48:36.189Z,3.67
2019-04-22T11:51:04.151Z,4.80
2019-04-22T11:53:31.126Z,4.20
2019-04-22T11:55:58.369Z,3.43
2019-04-22T11:58:26.487Z,3.37
2019-04-22T12:00:55.104Z,4.23
2019-04-22T12:03:22.915Z,6.17
2019-04-22T12:05:50.025Z,3.00
2019-04-22T12:08:17.333Z,3.47
2019-04-22T12:10:51.674Z,3.43
2019-04-22T12:13:12.723Z,3.67
2019-04-22T12:15:40.635Z,3.60
2019-04-22T12:18:08.995Z,3.47
2019-04-22T12:20:37.178Z,5.73
2019-04-22T12:23:05.096Z,4.10
2019-04-22T12:25:43.405Z,3.70
2019-04-22T12:28:01.122Z,3.23
2019-04-22T12:30:30.994Z,3.47
2019-04-22T12:32:58.129Z,3.57
2019-04-22T12:35:26.162Z,3.70
2019-04-22T12:37:57.397Z,3.80
2019-04-22T12:40:33.852Z,4.23
2019-04-22T12:42:51.363Z,3.33
2019-04-22T12:45:18.441Z,3.40
2019-04-22T12:47:46.277Z,3.87
2019-04-22T12:50:20.539Z,5.17
2019-04-22T12:52:50.939Z,4.80
2019-04-22T12:55:09.956Z,4.33
2019-04-22T12:57:36.937Z,3.57
2019-04-22T13:00:03.755Z,3.90
2019-04-22T13:02:31.309Z,4.00
2019-04-22T13:04:58.248Z,3.77
2019-04-22T13:07:25.990Z,3.37
2019-04-22T13:09:52.795Z,4.47
2019-04-22T13:12:22.340Z,3.50
2019-04-22T13:14:48.934Z,3.40
2019-04-22T13:17:17.079Z,3.40
2019-04-22T13:19:44.514Z,3.93
2019-04-22T13:22:12.429Z,3.80
2019-04-22T13:24:39.684Z,4.43
2019-04-22T13:27:06.999Z,2.90
2019-04-22T13:29:34.962Z,5.27
2019-04-22T13:32:02.559Z,3.20
2019-04-22T13:34:37.649Z,4.20
2019-04-22T13:36:58.982Z,3.57
2019-04-22T13:39:27.125Z,4.67
2019-04-22T13:41:59.932Z,3.87
2019-04-22T13:44:23.089Z,3.33
2019-04-22T13:47:10.406Z,6.33
2019-04-22T13:49:51.532Z,3.80
2019-04-22T13:52:20.681Z,3.73
2019-04-22T13:56:59.700Z,4.30
2019-04-22T13:59:23.011Z,4.00
2019-04-22T14:01:40.875Z,4.73
2019-04-22T14:04:07.856Z,3.83
2019-04-22T14:06:34.748Z,9.93
2019-04-22T14:09:03.114Z,3.50
2019-04-22T14:11:39.310Z,3.30
2019-04-22T14:13:58.707Z,4.80
2019-04-22T14:16:26.899Z,4.50
2019-04-22T14:18:53.979Z,4.03
2019-04-22T14:21:21.120Z,5.80
2019-04-22T14:23:48.685Z,4.30
2019-04-22T14:26:15.561Z,3.60
2019-04-22T14:28:43.668Z,3.90
2019-04-22T14:31:10.677Z,4.20
2019-04-22T14:33:38.393Z,3.80
2019-04-22T14:36:05.392Z,4.37
2019-04-22T14:38:32.426Z,3.50
2019-04-22T14:41:00.844Z,3.57
2019-04-22T14:43:57.884Z,5.10
2019-04-22T14:46:20.337Z,7.00
2019-04-22T14:48:49.947Z,4.90
2019-04-22T14:51:11.440Z,3.90
2019-04-22T14:53:41.544Z,4.63
2019-04-22T14:55:50.510Z,4.70
2019-04-22T14:58:17.556Z,4.00
2019-04-22T15:00:45.818Z,5.43
2019-04-22T15:03:13.508Z,4.83
2019-04-22T15:05:41.885Z,5.67
2019-04-22T15:08:09.032Z,4.33
2019-04-22T15:10:36.164Z,4.90
2019-04-22T15:13:03.395Z,4.37
2019-04-22T15:15:31.285Z,4.17
2019-04-22T15:17:58.868Z,5.43
2019-04-22T15:20:25.973Z,10.73
2019-04-22T15:22:52.779Z,4.53
2019-04-22T15:25:20.636Z,11.23
2019-04-22T15:27:47.771Z,4.43
2019-04-22T15:30:15.193Z,4.40
2019-04-22T15:32:43.192Z,4.03
2019-04-22T15:35:11.261Z,6.03
2019-04-22T15:37:39.412Z,14.50
2019-04-22T15:40:06.836Z,4.50
2019-04-22T15:42:38.288Z,8.73
2019-04-22T15:45:02.579Z,4.10
2019-04-22T15:47:31.127Z,4.57
2019-04-22T15:49:58.414Z,6.03
2019-04-22T15:52:32.067Z,5.17
2019-04-22T15:54:54.035Z,5.00
2019-04-22T15:57:22.434Z,5.10
2019-04-22T16:00:08.258Z,5.20
2019-04-22T16:02:17.553Z,5.67
2019-04-22T16:04:44.512Z,5.93
2019-04-22T16:07:12.637Z,7.70
2019-04-22T16:09:39.599Z,5.13
2019-04-22T16:12:16.159Z,8.47
2019-04-22T16:14:41.101Z,4.50
2019-04-22T16:17:04.263Z,4.90
2019-04-22T16:19:32.936Z,4.40
2019-04-22T16:22:05.556Z,5.20
2019-04-22T16:24:29.727Z,9.00
2019-04-22T16:26:58.190Z,5.20
2019-04-22T16:29:25.218Z,7.93
2019-04-22T16:31:51.801Z,5.93
2019-04-22T16:34:19.588Z,6.20
2019-04-22T16:36:47.133Z,4.90
2019-04-22T16:39:15.223Z,5.33
2019-04-22T16:41:42.566Z,5.50
2019-04-22T16:44:09.501Z,4.40
2019-04-22T16:46:37.404Z,10.43
2019-04-22T16:49:05.661Z,6.20
2019-04-22T16:51:33.872Z,4.67
2019-04-22T16:54:02.068Z,10.10
2019-04-22T16:56:31.763Z,7.97
2019-04-22T16:58:58.889Z,7.07
2019-04-22T17:01:30.395Z,12.90
2019-04-22T17:03:58.438Z,8.50
2019-04-22T17:06:25.673Z,6.00
2019-04-22T17:08:52.888Z,9.33
2019-04-22T17:11:20.199Z,10.73
2019-04-22T17:13:48.153Z,5.57
2019-04-22T17:16:18.067Z,6.77
2019-04-22T17:18:45.500Z,5.60
2019-04-22T17:21:13.003Z,6.20
2019-04-22T17:23:41.406Z,5.93
2019-04-22T17:26:08.470Z,6.90
2019-04-22T17:28:35.638Z,6.37
2019-04-22T17:31:02.445Z,6.60
2019-04-22T17:33:29.080Z,8.23
2019-04-22T17:35:56.912Z,7.33
2019-04-22T17:38:35.173Z,7.40
2019-04-22T17:41:10.451Z,5.23
2019-04-22T17:44:01.696Z,12.80
2019-04-22T17:46:10.978Z,6.13
2019-04-22T17:48:40.487Z,6.83
2019-04-22T17:51:19.118Z,5.47
2019-04-22T17:53:40.189Z,6.90
2019-04-22T17:56:08.682Z,6.50
2019-04-22T17:58:40.238Z,6.77
2019-04-22T18:01:06.142Z,8.10
2019-04-22T18:03:17.541Z,5.97
2019-04-22T18:05:45.948Z,8.68
2019-04-22T18:08:25.464Z,8.05
2019-04-22T18:10:54.216Z,7.58
2019-04-22T18:13:26.434Z,8.60
2019-04-22T18:15:53.308Z,6.40
2019-04-22T18:18:27.955Z,6.65
2019-04-22T18:20:41.174Z,8.10
2019-04-22T18:23:04.261Z,12.15
2019-04-22T18:25:48.819Z,7.20
2019-04-22T18:28:17.594Z,7.87
2019-04-22T18:30:35.232Z,6.53
2019-04-22T18:33:09.980Z,6.00
2019-04-22T18:35:35.251Z,5.95
2019-04-22T18:38:07.705Z,8.00
2019-04-22T18:40:37.267Z,6.90
2019-04-22T18:43:03.630Z,6.40
2019-04-22T18:46:07.060Z,9.18
2019-04-22T18:47:55.461Z,9.25
2019-04-22T18:50:33.416Z,6.45
2019-04-22T18:53:07.084Z,7.80
2019-04-22T18:55:25.147Z,8.05
2019-04-22T18:57:45.085Z,13.70
2019-04-22T19:00:04.550Z,9.65
2019-04-22T19:02:34.086Z,8.00
2019-04-22T19:05:07.666Z,10.43
2019-04-22T19:07:54.086Z,8.63
2019-04-22T19:10:34.390Z,8.05
2019-04-22T19:13:00.402Z,13.93
2019-04-22T19:15:22.684Z,8.75
2019-04-22T19:17:55.851Z,8.33
2019-04-22T19:20:15.583Z,10.70
2019-04-22T19:22:49.105Z,7.25
2019-04-22T19:25:01.302Z,9.85
2019-04-22T19:27:39.525Z,8.28
2019-04-22T19:30:10.490Z,10.58
2019-04-22T19:32:35.141Z,10.18
2019-04-22T19:34:56.891Z,10.35
2019-04-22T19:37:27.139Z,8.63
2019-04-22T19:40:03.472Z,8.80
2019-04-22T19:42:31.114Z,8.78
2019-04-22T19:44:55.332Z,8.35
2019-04-22T19:49:58.077Z,8.65
2019-04-22T19:52:24.455Z,7.37
2019-04-22T19:54:52.064Z,10.65
2019-04-22T19:57:11.654Z,9.80
2019-04-22T19:59:45.245Z,8.85
2019-04-22T20:02:11.441Z,8.35
2019-04-22T20:04:47.664Z,7.30
2019-04-22T20:07:08.426Z,9.00
2019-04-22T20:09:46.695Z,9.43
2019-04-22T20:12:04.271Z,8.50
2019-04-22T20:14:37.372Z,8.18
2019-04-22T20:17:00.664Z,7.72
2019-04-22T20:19:39.760Z,9.30
2019-04-22T20:22:04.836Z,7.83
2019-04-22T20:24:16.848Z,8.63
2019-04-22T20:27:09.338Z,9.13
2019-04-22T20:29:36.607Z,12.55
2019-04-22T20:31:59.295Z,8.20
2019-04-22T20:34:23.889Z,9.40
2019-04-22T20:37:03.577Z,8.03
2019-04-22T20:39:27.086Z,8.60
2019-04-22T20:41:53.352Z,8.60
2019-04-22T20:44:26.066Z,12.73
2019-04-22T20:46:48.821Z,8.80
2019-04-22T20:49:20.009Z,10.60
2019-04-22T20:51:53.425Z,11.65
2019-04-22T20:54:19.357Z,10.78
2019-04-22T20:56:37.300Z,9.20
2019-04-22T20:59:14.745Z,9.93
2019-04-22T21:01:47.670Z,9.88
2019-04-22T21:03:58.679Z,7.92
2019-04-22T21:06:37.050Z,11.73
2019-04-22T21:09:12.388Z,12.58
2019-04-22T21:11:34.341Z,8.20
2019-04-22T21:14:01.383Z,9.03
2019-04-22T21:16:32.919Z,9.65
2019-04-22T21:18:56.589Z,12.95
2019-04-22T21:21:35.885Z,7.75
2019-04-22T21:23:51.427Z,13.58
2019-04-22T21:26:24.098Z,8.03
2019-04-22T21:28:53.846Z,10.50
2019-04-22T21:31:30.640Z,11.20
2019-04-22T21:33:54.875Z,12.20
2019-04-22T21:36:27.934Z,10.70
2019-04-22T21:38:51.940Z,13.50
2019-04-22T21:41:17.478Z,8.50
2019-04-22T21:43:50.282Z,9.30
2019-04-22T21:46:13.139Z,8.25
2019-04-22T21:48:42.722Z,10.05
2019-04-22T21:51:10.848Z,9.70
2019-04-22T21:53:43.371Z,8.00
2019-04-22T21:56:25.377Z,8.53
2019-04-22T21:58:41.382Z,11.05
2019-04-22T22:01:14.406Z,10.63
2019-04-22T22:03:29.999Z,8.75
2019-04-22T22:05:53.417Z,11.25
2019-04-22T22:08:35.244Z,9.20
2019-04-22T22:11:01.148Z,7.47
2019-04-22T22:13:22.766Z,11.48
2019-04-22T22:15:52.125Z,8.48
2019-04-22T22:18:17.969Z,9.13
2019-04-22T22:21:13.167Z,7.33
